sensor_id;sensor_type;location;lat;lon;timestamp;temperature;humidity
42965;DHT22;28604;51.204;22.552;2023-01-25T00:01:42;4.20;93.00
42965;DHT22;28604;51.204;22.552;2023-01-25T00:04:08;4.20;93.00
42965;DHT22;28604;51.204;22.552;2023-01-25T00:06:34;4.20;93.10
42965;DHT22;28604;51.204;22.552;2023-01-25T00:09:00;4.20;93.10
42965;DHT22;28604;51.204;22.552;2023-01-25T00:11:26;4.20;93.10
42965;DHT22;28604;51.204;22.552;2023-01-25T00:13:52;4.20;93.00
42965;DHT22;28604;51.204;22.552;2023-01-25T00:16:19;4.20;93.00
42965;DHT22;28604;51.204;22.552;2023-01-25T00:18:45;4.20;93.10
42965;DHT22;28604;51.204;22.552;2023-01-25T00:21:12;4.10;93.30
42965;DHT22;28604;51.204;22.552;2023-01-25T00:23:38;4.10;93.50
42965;DHT22;28604;51.204;22.552;2023-01-25T00:26:04;4.10;93.30
42965;DHT22;28604;51.204;22.552;2023-01-25T00:28:30;4.10;93.50
42965;DHT22;28604;51.204;22.552;2023-01-25T00:31:00;4.20;93.30
42965;DHT22;28604;51.204;22.552;2023-01-25T00:36:03;4.10;93.20
42965;DHT22;28604;51.204;22.552;2023-01-25T00:38:48;4.10;93.30
42965;DHT22;28604;51.204;22.552;2023-01-25T00:41:14;4.10;93.30
42965;DHT22;28604;51.204;22.552;2023-01-25T00:43:39;4.10;92.90
42965;DHT22;28604;51.204;22.552;2023-01-25T00:46:05;4.10;92.90
42965;DHT22;28604;51.204;22.552;2023-01-25T00:48:34;4.10;92.90
42965;DHT22;28604;51.204;22.552;2023-01-25T00:51:01;4.10;92.80
42965;DHT22;28604;51.204;22.552;2023-01-25T00:53:28;4.10;92.80
42965;DHT22;28604;51.204;22.552;2023-01-25T00:55:54;4.10;92.90
42965;DHT22;28604;51.204;22.552;2023-01-25T00:58:20;4.10;93.00
42965;DHT22;28604;51.204;22.552;2023-01-25T01:00:46;4.10;93.00
42965;DHT22;28604;51.204;22.552;2023-01-25T01:03:12;4.10;92.90
42965;DHT22;28604;51.204;22.552;2023-01-25T01:05:38;4.10;92.90
42965;DHT22;28604;51.204;22.552;2023-01-25T01:08:04;4.10;92.90
42965;DHT22;28604;51.204;22.552;2023-01-25T01:10:30;4.10;92.90
42965;DHT22;28604;51.204;22.552;2023-01-25T01:12:56;4.00;92.70
42965;DHT22;28604;51.204;22.552;2023-01-25T01:15:22;4.10;93.00
42965;DHT22;28604;51.204;22.552;2023-01-25T01:17:48;4.00;93.00
42965;DHT22;28604;51.204;22.552;2023-01-25T01:20:15;4.00;92.90
42965;DHT22;28604;51.204;22.552;2023-01-25T01:22:41;4.00;92.80
42965;DHT22;28604;51.204;22.552;2023-01-25T01:25:07;4.00;92.80
42965;DHT22;28604;51.204;22.552;2023-01-25T01:27:33;4.00;92.70
42965;DHT22;28604;51.204;22.552;2023-01-25T01:29:59;4.10;92.60
42965;DHT22;28604;51.204;22.552;2023-01-25T01:32:25;4.10;92.80
42965;DHT22;28604;51.204;22.552;2023-01-25T01:34:52;4.00;92.70
42965;DHT22;28604;51.204;22.552;2023-01-25T01:37:18;4.10;92.80
42965;DHT22;28604;51.204;22.552;2023-01-25T01:39:44;4.00;92.90
42965;DHT22;28604;51.204;22.552;2023-01-25T01:42:10;4.00;92.90
42965;DHT22;28604;51.204;22.552;2023-01-25T01:44:55;4.00;92.80
42965;DHT22;28604;51.204;22.552;2023-01-25T01:47:41;4.00;92.80
42965;DHT22;28604;51.204;22.552;2023-01-25T01:50:18;4.00;92.60
42965;DHT22;28604;51.204;22.552;2023-01-25T01:52:46;4.00;92.50
42965;DHT22;28604;51.204;22.552;2023-01-25T01:55:15;4.00;92.50
42965;DHT22;28604;51.204;22.552;2023-01-25T01:57:47;4.00;92.90
42965;DHT22;28604;51.204;22.552;2023-01-25T02:00:23;3.90;92.50
42965;DHT22;28604;51.204;22.552;2023-01-25T02:02:50;4.00;92.50
42965;DHT22;28604;51.204;22.552;2023-01-25T02:07:57;4.00;92.50
42965;DHT22;28604;51.204;22.552;2023-01-25T02:10:25;3.90;92.50
42965;DHT22;28604;51.204;22.552;2023-01-25T02:12:55;3.90;92.40
42965;DHT22;28604;51.204;22.552;2023-01-25T02:15:22;3.90;92.40
42965;DHT22;28604;51.204;22.552;2023-01-25T02:17:49;3.90;92.50
42965;DHT22;28604;51.204;22.552;2023-01-25T02:20:39;3.90;92.40
42965;DHT22;28604;51.204;22.552;2023-01-25T02:23:46;3.90;92.70
42965;DHT22;28604;51.204;22.552;2023-01-25T02:26:14;3.90;92.60
42965;DHT22;28604;51.204;22.552;2023-01-25T02:28:54;3.90;92.50
42965;DHT22;28604;51.204;22.552;2023-01-25T02:31:23;3.90;92.40
42965;DHT22;28604;51.204;22.552;2023-01-25T02:33:49;3.90;92.30
42965;DHT22;28604;51.204;22.552;2023-01-25T02:36:26;3.90;92.20
42965;DHT22;28604;51.204;22.552;2023-01-25T02:39:05;3.90;92.20
42965;DHT22;28604;51.204;22.552;2023-01-25T02:41:36;3.80;92.40
42965;DHT22;28604;51.204;22.552;2023-01-25T02:44:41;3.80;92.40
42965;DHT22;28604;51.204;22.552;2023-01-25T02:47:03;3.90;92.40
42965;DHT22;28604;51.204;22.552;2023-01-25T02:49:28;3.90;92.40
42965;DHT22;28604;51.204;22.552;2023-01-25T02:51:55;3.90;92.40
42965;DHT22;28604;51.204;22.552;2023-01-25T02:54:23;3.90;92.50
42965;DHT22;28604;51.204;22.552;2023-01-25T02:56:51;3.90;92.40
42965;DHT22;28604;51.204;22.552;2023-01-25T02:59:17;3.80;92.70
42965;DHT22;28604;51.204;22.552;2023-01-25T03:01:48;3.90;92.50
42965;DHT22;28604;51.204;22.552;2023-01-25T03:04:15;3.90;92.60
42965;DHT22;28604;51.204;22.552;2023-01-25T03:06:41;3.80;92.50
42965;DHT22;28604;51.204;22.552;2023-01-25T03:09:09;3.80;92.70
42965;DHT22;28604;51.204;22.552;2023-01-25T03:11:37;3.80;92.70
42965;DHT22;28604;51.204;22.552;2023-01-25T03:14:03;3.80;92.60
42965;DHT22;28604;51.204;22.552;2023-01-25T03:16:30;3.70;92.60
42965;DHT22;28604;51.204;22.552;2023-01-25T03:18:56;3.60;92.80
42965;DHT22;28604;51.204;22.552;2023-01-25T03:21:25;3.70;92.70
42965;DHT22;28604;51.204;22.552;2023-01-25T03:23:57;3.70;92.80
42965;DHT22;28604;51.204;22.552;2023-01-25T03:26:26;3.70;92.70
42965;DHT22;28604;51.204;22.552;2023-01-25T03:29:08;3.70;92.70
42965;DHT22;28604;51.204;22.552;2023-01-25T03:31:37;3.60;92.80
42965;DHT22;28604;51.204;22.552;2023-01-25T03:34:03;3.60;92.70
42965;DHT22;28604;51.204;22.552;2023-01-25T03:36:33;3.60;92.70
42965;DHT22;28604;51.204;22.552;2023-01-25T03:38:59;3.60;92.80
42965;DHT22;28604;51.204;22.552;2023-01-25T03:41:26;3.60;92.80
42965;DHT22;28604;51.204;22.552;2023-01-25T03:43:55;3.60;92.70
42965;DHT22;28604;51.204;22.552;2023-01-25T03:46:22;3.60;92.80
42965;DHT22;28604;51.204;22.552;2023-01-25T03:48:47;3.60;92.70
42965;DHT22;28604;51.204;22.552;2023-01-25T03:51:14;3.60;92.70
42965;DHT22;28604;51.204;22.552;2023-01-25T03:53:41;3.50;92.80
42965;DHT22;28604;51.204;22.552;2023-01-25T03:56:11;3.50;92.80
42965;DHT22;28604;51.204;22.552;2023-01-25T03:58:54;3.50;92.70
42965;DHT22;28604;51.204;22.552;2023-01-25T04:01:21;3.50;92.70
42965;DHT22;28604;51.204;22.552;2023-01-25T04:03:48;3.50;92.60
42965;DHT22;28604;51.204;22.552;2023-01-25T04:06:15;3.40;92.60
42965;DHT22;28604;51.204;22.552;2023-01-25T04:08:42;3.40;92.70
42965;DHT22;28604;51.204;22.552;2023-01-25T04:11:09;3.40;92.60
42965;DHT22;28604;51.204;22.552;2023-01-25T04:13:36;3.40;92.60
42965;DHT22;28604;51.204;22.552;2023-01-25T04:16:06;3.40;92.60
42965;DHT22;28604;51.204;22.552;2023-01-25T04:18:51;3.40;92.60
42965;DHT22;28604;51.204;22.552;2023-01-25T04:21:18;3.40;92.60
42965;DHT22;28604;51.204;22.552;2023-01-25T04:23:45;3.40;92.40
42965;DHT22;28604;51.204;22.552;2023-01-25T04:26:14;3.40;92.50
42965;DHT22;28604;51.204;22.552;2023-01-25T04:28:45;3.40;92.50
42965;DHT22;28604;51.204;22.552;2023-01-25T04:31:11;3.30;92.50
42965;DHT22;28604;51.204;22.552;2023-01-25T04:33:39;3.30;92.50
42965;DHT22;28604;51.204;22.552;2023-01-25T04:36:07;3.20;92.20
42965;DHT22;28604;51.204;22.552;2023-01-25T04:38:33;3.30;92.50
42965;DHT22;28604;51.204;22.552;2023-01-25T04:41:00;3.20;92.30
42965;DHT22;28604;51.204;22.552;2023-01-25T04:43:26;3.20;92.50
42965;DHT22;28604;51.204;22.552;2023-01-25T04:45:56;3.10;92.40
42965;DHT22;28604;51.204;22.552;2023-01-25T04:48:28;3.10;92.60
42965;DHT22;28604;51.204;22.552;2023-01-25T04:50:58;2.90;92.60
42965;DHT22;28604;51.204;22.552;2023-01-25T04:53:25;3.00;92.50
42965;DHT22;28604;51.204;22.552;2023-01-25T04:55:53;3.10;92.70
42965;DHT22;28604;51.204;22.552;2023-01-25T04:58:21;3.10;92.50
42965;DHT22;28604;51.204;22.552;2023-01-25T05:00:50;3.10;92.50
42965;DHT22;28604;51.204;22.552;2023-01-25T05:03:16;3.10;92.50
42965;DHT22;28604;51.204;22.552;2023-01-25T05:05:45;3.20;92.50
42965;DHT22;28604;51.204;22.552;2023-01-25T05:08:11;3.20;92.50
42965;DHT22;28604;51.204;22.552;2023-01-25T05:10:37;3.20;92.50
42965;DHT22;28604;51.204;22.552;2023-01-25T05:13:32;3.20;92.40
42965;DHT22;28604;51.204;22.552;2023-01-25T05:16:08;3.30;92.40
42965;DHT22;28604;51.204;22.552;2023-01-25T05:18:34;3.30;92.50
42965;DHT22;28604;51.204;22.552;2023-01-25T05:21:00;3.30;92.50
42965;DHT22;28604;51.204;22.552;2023-01-25T05:23:27;3.30;92.50
42965;DHT22;28604;51.204;22.552;2023-01-25T05:25:54;3.30;92.50
42965;DHT22;28604;51.204;22.552;2023-01-25T05:28:39;3.30;92.40
42965;DHT22;28604;51.204;22.552;2023-01-25T05:31:21;3.30;92.40
42965;DHT22;28604;51.204;22.552;2023-01-25T05:33:47;3.30;92.40
42965;DHT22;28604;51.204;22.552;2023-01-25T05:36:14;3.30;92.40
42965;DHT22;28604;51.204;22.552;2023-01-25T05:38:41;3.30;92.40
42965;DHT22;28604;51.204;22.552;2023-01-25T05:41:09;3.30;92.30
42965;DHT22;28604;51.204;22.552;2023-01-25T05:43:35;3.30;92.30
42965;DHT22;28604;51.204;22.552;2023-01-25T05:46:04;3.30;92.30
42965;DHT22;28604;51.204;22.552;2023-01-25T05:48:31;3.30;92.30
42965;DHT22;28604;51.204;22.552;2023-01-25T05:50:57;3.30;92.30
42965;DHT22;28604;51.204;22.552;2023-01-25T05:53:25;3.30;92.40
42965;DHT22;28604;51.204;22.552;2023-01-25T05:55:52;3.30;92.40
42965;DHT22;28604;51.204;22.552;2023-01-25T05:58:18;3.30;92.40
42965;DHT22;28604;51.204;22.552;2023-01-25T06:00:45;3.30;92.30
42965;DHT22;28604;51.204;22.552;2023-01-25T06:03:19;3.30;92.30
42965;DHT22;28604;51.204;22.552;2023-01-25T06:05:45;3.30;92.30
42965;DHT22;28604;51.204;22.552;2023-01-25T06:08:11;3.30;92.30
42965;DHT22;28604;51.204;22.552;2023-01-25T06:10:44;3.30;92.30
42965;DHT22;28604;51.204;22.552;2023-01-25T06:13:10;3.30;91.90
42965;DHT22;28604;51.204;22.552;2023-01-25T06:15:36;3.30;92.30
42965;DHT22;28604;51.204;22.552;2023-01-25T06:18:21;3.20;92.10
42965;DHT22;28604;51.204;22.552;2023-01-25T06:21:08;3.30;92.20
42965;DHT22;28604;51.204;22.552;2023-01-25T06:23:36;3.30;92.20
42965;DHT22;28604;51.204;22.552;2023-01-25T06:26:05;3.30;92.20
42965;DHT22;28604;51.204;22.552;2023-01-25T06:28:32;3.20;91.80
42965;DHT22;28604;51.204;22.552;2023-01-25T06:31:11;3.30;92.10
42965;DHT22;28604;51.204;22.552;2023-01-25T06:33:38;3.30;92.10
42965;DHT22;28604;51.204;22.552;2023-01-25T06:36:10;3.30;92.20
42965;DHT22;28604;51.204;22.552;2023-01-25T06:38:36;3.30;92.10
42965;DHT22;28604;51.204;22.552;2023-01-25T06:41:05;3.30;92.10
42965;DHT22;28604;51.204;22.552;2023-01-25T06:43:32;3.30;92.10
42965;DHT22;28604;51.204;22.552;2023-01-25T06:45:59;3.30;92.00
42965;DHT22;28604;51.204;22.552;2023-01-25T06:48:27;3.30;92.00
42965;DHT22;28604;51.204;22.552;2023-01-25T06:51:08;3.20;91.90
42965;DHT22;28604;51.204;22.552;2023-01-25T06:53:36;3.20;92.00
42965;DHT22;28604;51.204;22.552;2023-01-25T06:56:06;3.20;92.00
42965;DHT22;28604;51.204;22.552;2023-01-25T06:58:32;3.30;92.10
42965;DHT22;28604;51.204;22.552;2023-01-25T07:01:07;3.30;92.10
42965;DHT22;28604;51.204;22.552;2023-01-25T07:03:35;3.30;92.00
42965;DHT22;28604;51.204;22.552;2023-01-25T07:06:03;3.30;92.10
42965;DHT22;28604;51.204;22.552;2023-01-25T07:08:29;3.30;92.10
42965;DHT22;28604;51.204;22.552;2023-01-25T07:10:58;3.40;92.10
42965;DHT22;28604;51.204;22.552;2023-01-25T07:13:24;3.30;91.90
42965;DHT22;28604;51.204;22.552;2023-01-25T07:15:52;3.30;92.00
42965;DHT22;28604;51.204;22.552;2023-01-25T07:18:18;3.30;92.00
42965;DHT22;28604;51.204;22.552;2023-01-25T07:20:44;3.30;92.10
42965;DHT22;28604;51.204;22.552;2023-01-25T07:23:10;3.40;92.10
42965;DHT22;28604;51.204;22.552;2023-01-25T07:25:36;3.40;92.00
42965;DHT22;28604;51.204;22.552;2023-01-25T07:28:05;3.40;91.90
42965;DHT22;28604;51.204;22.552;2023-01-25T07:30:31;3.40;91.90
42965;DHT22;28604;51.204;22.552;2023-01-25T07:32:58;3.40;91.70
42965;DHT22;28604;51.204;22.552;2023-01-25T07:35:24;3.40;91.70
42965;DHT22;28604;51.204;22.552;2023-01-25T07:37:50;3.40;91.90
42965;DHT22;28604;51.204;22.552;2023-01-25T07:40:16;3.40;91.50
42965;DHT22;28604;51.204;22.552;2023-01-25T07:42:42;3.40;91.50
42965;DHT22;28604;51.204;22.552;2023-01-25T07:45:12;3.40;91.50
42965;DHT22;28604;51.204;22.552;2023-01-25T07:47:38;3.40;92.20
42965;DHT22;28604;51.204;22.552;2023-01-25T07:50:04;3.40;92.00
42965;DHT22;28604;51.204;22.552;2023-01-25T07:52:30;3.40;91.80
42965;DHT22;28604;51.204;22.552;2023-01-25T07:54:56;3.50;91.80
42965;DHT22;28604;51.204;22.552;2023-01-25T07:57:25;3.50;91.70
42965;DHT22;28604;51.204;22.552;2023-01-25T07:59:53;3.50;91.60
42965;DHT22;28604;51.204;22.552;2023-01-25T08:02:19;3.50;91.80
42965;DHT22;28604;51.204;22.552;2023-01-25T08:04:45;3.50;91.60
42965;DHT22;28604;51.204;22.552;2023-01-25T08:07:12;3.50;91.50
42965;DHT22;28604;51.204;22.552;2023-01-25T08:09:40;3.50;91.20
42965;DHT22;28604;51.204;22.552;2023-01-25T08:12:06;3.40;91.30
42965;DHT22;28604;51.204;22.552;2023-01-25T08:14:33;3.50;91.30
42965;DHT22;28604;51.204;22.552;2023-01-25T08:16:59;3.50;91.40
42965;DHT22;28604;51.204;22.552;2023-01-25T08:19:26;3.50;91.30
42965;DHT22;28604;51.204;22.552;2023-01-25T08:21:53;3.50;91.30
42965;DHT22;28604;51.204;22.552;2023-01-25T08:24:19;3.50;91.20
42965;DHT22;28604;51.204;22.552;2023-01-25T08:26:45;3.50;91.20
42965;DHT22;28604;51.204;22.552;2023-01-25T08:29:11;3.50;91.70
42965;DHT22;28604;51.204;22.552;2023-01-25T08:31:40;3.50;92.10
42965;DHT22;28604;51.204;22.552;2023-01-25T08:34:06;3.50;91.80
42965;DHT22;28604;51.204;22.552;2023-01-25T08:36:33;3.60;92.30
42965;DHT22;28604;51.204;22.552;2023-01-25T08:39:01;3.60;91.80
42965;DHT22;28604;51.204;22.552;2023-01-25T08:41:29;3.60;92.40
42965;DHT22;28604;51.204;22.552;2023-01-25T08:43:56;3.60;91.60
42965;DHT22;28604;51.204;22.552;2023-01-25T08:46:22;3.60;91.40
42965;DHT22;28604;51.204;22.552;2023-01-25T08:48:56;3.70;91.30
42965;DHT22;28604;51.204;22.552;2023-01-25T08:51:23;3.70;91.40
42965;DHT22;28604;51.204;22.552;2023-01-25T08:53:49;3.70;91.00
42965;DHT22;28604;51.204;22.552;2023-01-25T08:56:15;3.70;91.10
42965;DHT22;28604;51.204;22.552;2023-01-25T08:58:47;3.60;91.00
42965;DHT22;28604;51.204;22.552;2023-01-25T09:01:15;3.70;90.80
42965;DHT22;28604;51.204;22.552;2023-01-25T09:03:47;3.70;91.00
42965;DHT22;28604;51.204;22.552;2023-01-25T09:06:13;3.70;90.60
42965;DHT22;28604;51.204;22.552;2023-01-25T09:08:39;3.60;90.80
42965;DHT22;28604;51.204;22.552;2023-01-25T09:11:14;3.60;90.70
42965;DHT22;28604;51.204;22.552;2023-01-25T09:13:40;3.70;90.20
42965;DHT22;28604;51.204;22.552;2023-01-25T09:16:12;3.60;90.90
42965;DHT22;28604;51.204;22.552;2023-01-25T09:18:41;3.60;90.80
42965;DHT22;28604;51.204;22.552;2023-01-25T09:21:10;3.60;90.80
42965;DHT22;28604;51.204;22.552;2023-01-25T09:23:37;3.70;90.50
42965;DHT22;28604;51.204;22.552;2023-01-25T09:26:03;3.70;90.60
42965;DHT22;28604;51.204;22.552;2023-01-25T09:28:30;3.70;90.70
42965;DHT22;28604;51.204;22.552;2023-01-25T09:30:58;3.80;90.80
42965;DHT22;28604;51.204;22.552;2023-01-25T09:33:38;3.70;90.70
42965;DHT22;28604;51.204;22.552;2023-01-25T09:36:05;3.80;90.40
42965;DHT22;28604;51.204;22.552;2023-01-25T09:38:32;3.80;90.50
42965;DHT22;28604;51.204;22.552;2023-01-25T09:46:52;3.90;90.50
42965;DHT22;28604;51.204;22.552;2023-01-25T09:55:26;3.90;91.00
42965;DHT22;28604;51.204;22.552;2023-01-25T09:57:56;3.90;90.70
42965;DHT22;28604;51.204;22.552;2023-01-25T10:00:33;3.90;90.60
42965;DHT22;28604;51.204;22.552;2023-01-25T10:05:43;3.90;90.90
42965;DHT22;28604;51.204;22.552;2023-01-25T10:11:13;3.90;90.00
42965;DHT22;28604;51.204;22.552;2023-01-25T10:13:42;4.00;90.50
42965;DHT22;28604;51.204;22.552;2023-01-25T10:16:19;4.00;90.20
42965;DHT22;28604;51.204;22.552;2023-01-25T10:21:41;4.00;89.70
42965;DHT22;28604;51.204;22.552;2023-01-25T10:29:47;4.00;89.60
42965;DHT22;28604;51.204;22.552;2023-01-25T10:32:27;4.10;89.70
42965;DHT22;28604;51.204;22.552;2023-01-25T10:34:58;4.10;88.80
42965;DHT22;28604;51.204;22.552;2023-01-25T10:37:28;4.10;88.80
42965;DHT22;28604;51.204;22.552;2023-01-25T10:39:57;4.10;89.20
42965;DHT22;28604;51.204;22.552;2023-01-25T10:42:26;4.10;89.40
42965;DHT22;28604;51.204;22.552;2023-01-25T10:44:54;4.10;90.20
42965;DHT22;28604;51.204;22.552;2023-01-25T10:47:29;4.10;88.90
42965;DHT22;28604;51.204;22.552;2023-01-25T10:49:59;4.10;88.60
42965;DHT22;28604;51.204;22.552;2023-01-25T10:52:28;4.10;89.60
42965;DHT22;28604;51.204;22.552;2023-01-25T10:55:18;4.10;88.80
42965;DHT22;28604;51.204;22.552;2023-01-25T10:57:55;4.10;89.40
42965;DHT22;28604;51.204;22.552;2023-01-25T11:02:53;4.10;88.90
42965;DHT22;28604;51.204;22.552;2023-01-25T11:05:35;4.10;88.60
42965;DHT22;28604;51.204;22.552;2023-01-25T11:10:55;4.10;88.80
42965;DHT22;28604;51.204;22.552;2023-01-25T11:13:30;4.10;88.70
42965;DHT22;28604;51.204;22.552;2023-01-25T11:18:28;4.10;88.30
42965;DHT22;28604;51.204;22.552;2023-01-25T11:21:13;4.10;89.10
42965;DHT22;28604;51.204;22.552;2023-01-25T11:26:35;4.00;89.00
42965;DHT22;28604;51.204;22.552;2023-01-25T11:31:32;4.00;89.00
42965;DHT22;28604;51.204;22.552;2023-01-25T11:33:58;4.00;88.90
42965;DHT22;28604;51.204;22.552;2023-01-25T11:42:11;3.90;89.70
42965;DHT22;28604;51.204;22.552;2023-01-25T11:47:54;3.90;90.00
42965;DHT22;28604;51.204;22.552;2023-01-25T11:50:43;4.00;89.70
42965;DHT22;28604;51.204;22.552;2023-01-25T12:04:41;4.00;89.60
42965;DHT22;28604;51.204;22.552;2023-01-25T12:19:19;4.00;89.30
42965;DHT22;28604;51.204;22.552;2023-01-25T12:24:35;4.00;89.70
42965;DHT22;28604;51.204;22.552;2023-01-25T12:27:25;3.90;90.20
42965;DHT22;28604;51.204;22.552;2023-01-25T12:30:14;3.90;89.40
42965;DHT22;28604;51.204;22.552;2023-01-25T12:35:31;4.00;90.30
42965;DHT22;28604;51.204;22.552;2023-01-25T12:38:03;4.00;90.20
42965;DHT22;28604;51.204;22.552;2023-01-25T12:40:38;4.00;90.10
42965;DHT22;28604;51.204;22.552;2023-01-25T12:43:14;4.10;90.20
42965;DHT22;28604;51.204;22.552;2023-01-25T12:45:43;4.10;90.10
42965;DHT22;28604;51.204;22.552;2023-01-25T12:48:29;4.10;89.00
42965;DHT22;28604;51.204;22.552;2023-01-25T12:50:57;4.10;90.30
42965;DHT22;28604;51.204;22.552;2023-01-25T12:53:28;4.00;90.20
42965;DHT22;28604;51.204;22.552;2023-01-25T12:55:58;4.00;89.10
42965;DHT22;28604;51.204;22.552;2023-01-25T13:09:42;4.10;90.00
42965;DHT22;28604;51.204;22.552;2023-01-25T13:12:11;4.10;89.20
42965;DHT22;28604;51.204;22.552;2023-01-25T13:14:38;4.10;88.60
42965;DHT22;28604;51.204;22.552;2023-01-25T13:17:29;4.10;88.10
42965;DHT22;28604;51.204;22.552;2023-01-25T13:19:57;4.10;88.30
42965;DHT22;28604;51.204;22.552;2023-01-25T13:25:22;4.20;88.10
42965;DHT22;28604;51.204;22.552;2023-01-25T13:27:48;4.20;88.30
42965;DHT22;28604;51.204;22.552;2023-01-25T13:37:58;4.20;88.50
42965;DHT22;28604;51.204;22.552;2023-01-25T13:40:35;4.10;89.30
42965;DHT22;28604;51.204;22.552;2023-01-25T13:45:38;4.20;87.70
42965;DHT22;28604;51.204;22.552;2023-01-25T13:48:14;4.20;87.40
42965;DHT22;28604;51.204;22.552;2023-01-25T13:50:58;4.20;88.30
42965;DHT22;28604;51.204;22.552;2023-01-25T13:53:26;4.20;88.10
42965;DHT22;28604;51.204;22.552;2023-01-25T13:55:58;4.20;88.60
42965;DHT22;28604;51.204;22.552;2023-01-25T14:03:40;4.20;87.90
42965;DHT22;28604;51.204;22.552;2023-01-25T14:06:16;4.20;87.80
42965;DHT22;28604;51.204;22.552;2023-01-25T14:08:44;4.10;87.90
42965;DHT22;28604;51.204;22.552;2023-01-25T14:11:17;4.10;87.80
42965;DHT22;28604;51.204;22.552;2023-01-25T14:14:15;4.10;87.90
42965;DHT22;28604;51.204;22.552;2023-01-25T14:16:41;4.10;87.60
42965;DHT22;28604;51.204;22.552;2023-01-25T14:19:25;4.10;87.40
42965;DHT22;28604;51.204;22.552;2023-01-25T14:22:30;4.00;87.50
42965;DHT22;28604;51.204;22.552;2023-01-25T14:25:04;4.00;88.00
42965;DHT22;28604;51.204;22.552;2023-01-25T14:27:36;4.00;88.30
42965;DHT22;28604;51.204;22.552;2023-01-25T14:30:11;4.00;88.40
42965;DHT22;28604;51.204;22.552;2023-01-25T14:32:40;4.00;88.20
42965;DHT22;28604;51.204;22.552;2023-01-25T14:37:54;4.00;87.50
42965;DHT22;28604;51.204;22.552;2023-01-25T14:40:22;3.90;87.70
42965;DHT22;28604;51.204;22.552;2023-01-25T14:42:49;3.90;87.70
42965;DHT22;28604;51.204;22.552;2023-01-25T14:45:16;3.80;87.80
42965;DHT22;28604;51.204;22.552;2023-01-25T14:47:42;3.80;88.40
42965;DHT22;28604;51.204;22.552;2023-01-25T14:50:36;3.80;88.20
42965;DHT22;28604;51.204;22.552;2023-01-25T14:53:20;3.80;88.00
42965;DHT22;28604;51.204;22.552;2023-01-25T14:55:48;3.80;87.90
42965;DHT22;28604;51.204;22.552;2023-01-25T14:58:24;3.80;87.90
42965;DHT22;28604;51.204;22.552;2023-01-25T15:00:55;3.80;88.10
42965;DHT22;28604;51.204;22.552;2023-01-25T15:03:22;3.70;88.00
42965;DHT22;28604;51.204;22.552;2023-01-25T15:05:52;3.70;88.20
42965;DHT22;28604;51.204;22.552;2023-01-25T15:08:36;3.70;88.10
42965;DHT22;28604;51.204;22.552;2023-01-25T15:11:03;3.60;88.20
42965;DHT22;28604;51.204;22.552;2023-01-25T15:13:48;3.60;88.40
42965;DHT22;28604;51.204;22.552;2023-01-25T15:16:14;3.60;88.90
42965;DHT22;28604;51.204;22.552;2023-01-25T15:21:15;3.40;90.10
42965;DHT22;28604;51.204;22.552;2023-01-25T15:23:43;3.40;89.50
42965;DHT22;28604;51.204;22.552;2023-01-25T15:26:20;3.40;89.80
42965;DHT22;28604;51.204;22.552;2023-01-25T15:28:50;3.40;90.40
42965;DHT22;28604;51.204;22.552;2023-01-25T15:33:48;3.30;89.80
42965;DHT22;28604;51.204;22.552;2023-01-25T15:36:14;3.40;90.00
42965;DHT22;28604;51.204;22.552;2023-01-25T15:38:41;3.30;90.00
42965;DHT22;28604;51.204;22.552;2023-01-25T15:41:07;3.30;89.60
42965;DHT22;28604;51.204;22.552;2023-01-25T15:43:34;3.30;91.00
42965;DHT22;28604;51.204;22.552;2023-01-25T15:46:00;3.40;90.20
42965;DHT22;28604;51.204;22.552;2023-01-25T15:48:32;3.30;89.80
42965;DHT22;28604;51.204;22.552;2023-01-25T15:50:59;3.30;90.80
42965;DHT22;28604;51.204;22.552;2023-01-25T15:53:25;3.30;90.30
42965;DHT22;28604;51.204;22.552;2023-01-25T15:55:56;3.30;90.60
42965;DHT22;28604;51.204;22.552;2023-01-25T15:58:27;3.30;90.70
42965;DHT22;28604;51.204;22.552;2023-01-25T16:00:54;3.40;90.10
42965;DHT22;28604;51.204;22.552;2023-01-25T16:03:19;3.40;90.10
42965;DHT22;28604;51.204;22.552;2023-01-25T16:06:20;3.30;90.10
42965;DHT22;28604;51.204;22.552;2023-01-25T16:08:46;3.30;91.10
42965;DHT22;28604;51.204;22.552;2023-01-25T16:11:12;3.30;91.10
42965;DHT22;28604;51.204;22.552;2023-01-25T16:13:38;3.40;90.30
42965;DHT22;28604;51.204;22.552;2023-01-25T16:16:17;3.30;90.10
42965;DHT22;28604;51.204;22.552;2023-01-25T16:18:43;3.30;90.00
42965;DHT22;28604;51.204;22.552;2023-01-25T16:21:10;3.30;90.00
42965;DHT22;28604;51.204;22.552;2023-01-25T16:23:37;3.30;90.20
42965;DHT22;28604;51.204;22.552;2023-01-25T16:26:03;3.30;90.00
42965;DHT22;28604;51.204;22.552;2023-01-25T16:28:34;3.30;90.20
42965;DHT22;28604;51.204;22.552;2023-01-25T16:31:00;3.30;90.80
42965;DHT22;28604;51.204;22.552;2023-01-25T16:33:26;3.30;90.30
42965;DHT22;28604;51.204;22.552;2023-01-25T16:36:13;3.30;90.00
42965;DHT22;28604;51.204;22.552;2023-01-25T16:38:39;3.30;90.40
42965;DHT22;28604;51.204;22.552;2023-01-25T16:41:05;3.30;90.80
42965;DHT22;28604;51.204;22.552;2023-01-25T16:43:31;3.30;90.30
42965;DHT22;28604;51.204;22.552;2023-01-25T16:45:57;3.30;90.00
42965;DHT22;28604;51.204;22.552;2023-01-25T16:48:24;3.30;90.00
42965;DHT22;28604;51.204;22.552;2023-01-25T16:50:50;3.30;90.00
42965;DHT22;28604;51.204;22.552;2023-01-25T16:53:17;3.20;90.00
42965;DHT22;28604;51.204;22.552;2023-01-25T16:55:43;3.30;90.00
42965;DHT22;28604;51.204;22.552;2023-01-25T16:58:09;3.20;90.60
42965;DHT22;28604;51.204;22.552;2023-01-25T17:00:36;3.30;90.30
42965;DHT22;28604;51.204;22.552;2023-01-25T17:03:01;3.30;90.00
42965;DHT22;28604;51.204;22.552;2023-01-25T17:05:28;3.30;89.90
42965;DHT22;28604;51.204;22.552;2023-01-25T17:07:56;3.30;89.90
42965;DHT22;28604;51.204;22.552;2023-01-25T17:10:23;3.30;90.90
42965;DHT22;28604;51.204;22.552;2023-01-25T17:12:48;3.20;91.00
42965;DHT22;28604;51.204;22.552;2023-01-25T17:15:15;3.20;90.50
42965;DHT22;28604;51.204;22.552;2023-01-25T17:17:44;3.30;90.40
42965;DHT22;28604;51.204;22.552;2023-01-25T17:20:10;3.30;90.50
42965;DHT22;28604;51.204;22.552;2023-01-25T17:22:36;3.20;90.70
42965;DHT22;28604;51.204;22.552;2023-01-25T17:25:06;3.30;91.00
42965;DHT22;28604;51.204;22.552;2023-01-25T17:27:32;3.20;91.20
42965;DHT22;28604;51.204;22.552;2023-01-25T17:29:58;3.10;91.20
42965;DHT22;28604;51.204;22.552;2023-01-25T17:32:24;3.20;90.80
42965;DHT22;28604;51.204;22.552;2023-01-25T17:34:50;3.20;90.80
42965;DHT22;28604;51.204;22.552;2023-01-25T17:37:15;3.20;90.90
42965;DHT22;28604;51.204;22.552;2023-01-25T17:39:42;3.20;90.80
42965;DHT22;28604;51.204;22.552;2023-01-25T17:42:07;3.20;90.60
42965;DHT22;28604;51.204;22.552;2023-01-25T17:44:35;3.20;90.50
42965;DHT22;28604;51.204;22.552;2023-01-25T17:47:01;3.20;90.70